| time (UTC) | temp C | wind direction | speed KPH | gust KPH | rain 1hr cm | rain 24hr cm | rain mn cm | humidity % | barometer mb |
| 20260906122859 | 25 | 297 | 16.1 | 17.7 | 0.00 | 0.00 | 0.00 | 23 | 1012.5 |
| 20260906122357 | 25 | 312 | 16.1 | 20.9 | 0.00 | 0.00 | 0.00 | 22 | 1012.5 |
| 20260906121857 | 26 | 6 | 12.9 | 16.1 | 0.00 | 0.00 | 0.00 | 22 | 1012.2 |
| 20260906121358 | 25 | 284 | 14.5 | 17.7 | 0.00 | 0.00 | 0.00 | 18 | 1012.2 |
| 20260906120857 | 25 | 263 | 14.5 | 16.1 | 0.00 | 0.00 | 0.00 | 19 | 1012.2 |
| 20260906120357 | 26 | 316 | 14.5 | 24.1 | 0.00 | 0.00 | 0.00 | 19 | 1012.2 |
| 20260906115858 | 25 | 308 | 16.1 | 20.9 | 0.00 | 0.00 | 0.00 | 21 | 1012.5 |
| 20260906115357 | 26 | 310 | 9.7 | 17.7 | 0.00 | 0.00 | 0.00 | 21 | 1012.5 |
| 20260906114857 | 25 | 306 | 14.5 | 16.1 | 0.00 | 0.00 | 0.00 | 24 | 1012.5 |
| 20260906114357 | 25 | 290 | 14.5 | 17.7 | 0.00 | 0.00 | 0.00 | 25 | 1012.9 |
| 20260906113857 | 25 | 286 | 9.7 | 11.3 | 0.00 | 0.00 | 0.00 | 26 | 1012.5 |
| 20260906113357 | 25 | 316 | 8.0 | 12.9 | 0.00 | 0.00 | 0.00 | 25 | 1012.5 |
| 20260906112857 | 25 | 289 | 14.5 | 16.1 | 0.00 | 0.00 | 0.00 | 25 | 1012.2 |
| 20260906112358 | 25 | 260 | 12.9 | 14.5 | 0.00 | 0.00 | 0.00 | 25 | 1012.5 |
| 20260906111857 | 25 | 266 | 17.7 | 20.9 | 0.00 | 0.00 | 0.00 | 25 | 1012.2 |
| 20260906111357 | 25 | 293 | 19.3 | 27.4 | 0.00 | 0.00 | 0.00 | 22 | 1012.2 |
| 20260906110859 | 25 | 314 | 11.3 | 16.1 | 0.00 | 0.00 | 0.00 | 22 | 1012.5 |
| 20260906110357 | 25 | 273 | 11.3 | 14.5 | 0.00 | 0.00 | 0.00 | 23 | 1012.5 |
| 20260906105858 | 26 | 332 | 4.8 | 8.0 | 0.00 | 0.00 | 0.00 | 22 | 1012.5 |
| 20260906105357 | 25 | 339 | 6.4 | 12.9 | 0.00 | 0.00 | 0.00 | 22 | 1012.5 |
| 20260906104857 | 25 | 321 | 11.3 | 14.5 | 0.00 | 0.00 | 0.00 | 22 | 1012.5 |
| 20260906104358 | 25 | 281 | 14.5 | 16.1 | 0.00 | 0.00 | 0.00 | 22 | 1012.5 |
| 20260906103858 | 25 | 287 | 19.3 | 22.5 | 0.00 | 0.00 | 0.00 | 24 | 1012.5 |
| 20260906103357 | 25 | 37 | 12.9 | 16.1 | 0.00 | 0.00 | 0.00 | 22 | 1012.5 |
| 20260906102857 | 25 | 278 | 6.4 | 9.7 | 0.00 | 0.00 | 0.00 | 23 | 1012.9 |
| 20260906102357 | 25 | 314 | 12.9 | 16.1 | 0.00 | 0.00 | 0.00 | 23 | 1012.5 |
| 20260906101857 | 25 | 266 | 11.3 | 14.5 | 0.00 | 0.00 | 0.00 | 22 | 1012.5 |
| 20260906101358 | 25 | 250 | 4.8 | 4.8 | 0.00 | 0.00 | 0.00 | 23 | 1012.9 |
| 20260906100858 | 24 | 293 | 9.7 | 11.3 | 0.00 | 0.00 | 0.00 | 21 | 1012.5 |
| 20260906100358 | 24 | 230 | 3.2 | 3.2 | 0.00 | 0.00 | 0.00 | 23 | 1012.9 |
| 20260906095858 | 25 | 289 | 11.3 | 14.5 | 0.00 | 0.00 | 0.00 | 23 | 1012.5 |
| 20260906095358 | 25 | 282 | 8.0 | 9.7 | 0.00 | 0.00 | 0.00 | 23 | 1012.5 |
| 20260906094856 | 25 | 302 | 11.3 | 12.9 | 0.00 | 0.00 | 0.00 | 23 | 1012.5 |
| 20260906094358 | 25 | 302 | 14.5 | 17.7 | 0.00 | 0.00 | 0.00 | 24 | 1012.9 |
| 20260906093857 | 25 | 335 | 4.8 | 4.8 | 0.00 | 0.00 | 0.00 | 20 | 1012.9 |
| 20260906093357 | 24 | 253 | 3.2 | 3.2 | 0.00 | 0.00 | 0.00 | 21 | 1012.9 |
| 20260906092857 | 24 | 306 | 4.8 | 4.8 | 0.00 | 0.00 | 0.00 | 22 | 1012.9 |
| 20260906092358 | 24 | 287 | 4.8 | 8.0 | 0.00 | 0.00 | 0.00 | 20 | 1012.9 |
| 20260906091858 | 24 | 312 | 17.7 | 20.9 | 0.00 | 0.00 | 0.00 | 20 | 1012.9 |
| 20260906091358 | 24 | 277 | 19.3 | 22.5 | 0.00 | 0.00 | 0.00 | 21 | 1012.5 |
| 20260906090857 | 24 | 252 | 14.5 | 20.9 | 0.00 | 0.00 | 0.00 | 19 | 1012.9 |
| 20260906090357 | 24 | 275 | 14.5 | 16.1 | 0.00 | 0.00 | 0.00 | 20 | 1012.9 |
| 20260906085857 | 25 | 257 | 4.8 | 4.8 | 0.00 | 0.00 | 0.00 | 21 | 1012.5 |
| 20260906085357 | 24 | 241 | 8.0 | 8.0 | 0.00 | 0.00 | 0.00 | 20 | 1012.9 |
| 20260906084857 | 24 | 278 | 9.7 | 12.9 | 0.00 | 0.00 | 0.00 | 22 | 1012.9 |
| 20260906084400 | 23 | 255 | 16.1 | 22.5 | 0.00 | 0.00 | 0.00 | 23 | 1012.9 |
| 20260906083857 | 23 | 256 | 12.9 | 16.1 | 0.00 | 0.00 | 0.00 | 23 | 1012.9 |
| 20260906083358 | 23 | 232 | 8.0 | 8.0 | 0.00 | 0.00 | 0.00 | 24 | 1012.9 |
| 20260906082858 | 23 | 237 | 8.0 | 9.7 | 0.00 | 0.00 | 0.00 | 21 | 1012.9 |
| 20260906082357 | 23 | 216 | 8.0 | 9.7 | 0.00 | 0.00 | 0.00 | 22 | 1012.9 |
| 20260906081857 | 23 | 257 | 9.7 | 12.9 | 0.00 | 0.00 | 0.00 | 22 | 1012.9 |
| 20260906081357 | 24 | 266 | 3.2 | 3.2 | 0.00 | 0.00 | 0.00 | 28 | 1012.5 |
| 20260906080857 | 23 | 193 | 4.8 | 8.0 | 0.00 | 0.00 | 0.00 | 27 | 1012.9 |
| 20260906080357 | 23 | 207 | 8.0 | 11.3 | 0.00 | 0.00 | 0.00 | 24 | 1012.9 |
| 20260906075857 | 23 | 263 | 3.2 | 3.2 | 0.00 | 0.00 | 0.00 | 24 | 1012.9 |
| 20260906075357 | 23 | 156 | 3.2 | 3.2 | 0.00 | 0.00 | 0.00 | 25 | 1012.9 |
| 20260906074857 | 23 | 211 | 6.4 | 4.8 | 0.00 | 0.00 | 0.00 | 23 | 1012.9 |
| 20260906074357 | 23 | 193 | 3.2 | 3.2 | 0.00 | 0.00 | 0.00 | 23 | 1012.9 |
| 20260906073858 | 23 | 247 | 4.8 | 3.2 | 0.00 | 0.00 | 0.00 | 23 | 1012.9 |
| 20260906073358 | 23 | 270 | 4.8 | 4.8 | 0.00 | 0.00 | 0.00 | 24 | 1012.9 |
| 20260906072857 | 23 | 236 | 6.4 | 4.8 | 0.00 | 0.00 | 0.00 | 25 | 1012.9 |
| 20260906072357 | 23 | 73 | 1.6 | 0.0 | 0.00 | 0.00 | 0.00 | 24 | 1012.9 |
| 20260906071857 | 22 | 260 | 8.0 | 11.3 | 0.00 | 0.00 | 0.00 | 24 | 1012.9 |
| 20260906071357 | 22 | 260 | 8.0 | 11.3 | 0.00 | 0.00 | 0.00 | 24 | 1012.9 |
| 20260906070858 | 22 | 260 | 8.0 | 11.3 | 0.00 | 0.00 | 0.00 | 24 | 1012.9 |
| 20260906070357 | 22 | 260 | 8.0 | 11.3 | 0.00 | 0.00 | 0.00 | 24 | 1012.9 |
| 20260906065857 | 22 | 300 | 4.8 | 4.8 | 0.00 | 0.00 | 0.00 | 24 | 1013.2 |
| 20260906065357 | 22 | 214 | 9.7 | 9.7 | 0.00 | 0.00 | 0.00 | 22 | 1012.9 |
| 20260906064857 | 22 | 209 | 1.6 | 1.6 | 0.00 | 0.00 | 0.00 | 24 | 1013.2 |
| 20260906064357 | 22 | 236 | 3.2 | 4.8 | 0.00 | 0.00 | 0.00 | 25 | 1012.9 |
| 20260906063858 | 21 | 216 | 3.2 | 3.2 | 0.00 | 0.00 | 0.00 | 22 | 1013.2 |
| 20260906063357 | 21 | 262 | 9.7 | 11.3 | 0.00 | 0.00 | 0.00 | 24 | 1012.9 |
| 20260906062857 | 21 | 271 | 8.0 | 9.7 | 0.00 | 0.00 | 0.00 | 25 | 1012.9 |
| 20260906062358 | 21 | 257 | 3.2 | 3.2 | 0.00 | 0.00 | 0.00 | 26 | 1013.2 |
| 20260906061858 | 21 | 286 | 4.8 | 4.8 | 0.00 | 0.00 | 0.00 | 29 | 1012.9 |
| 20260906061357 | 21 | 236 | 6.4 | 9.7 | 0.00 | 0.00 | 0.00 | 27 | 1012.9 |
| 20260906060857 | 21 | 181 | 8.0 | 9.7 | 0.00 | 0.00 | 0.00 | 26 | 1012.9 |
| 20260906060357 | 21 | 261 | 8.0 | 11.3 | 0.00 | 0.00 | 0.00 | 26 | 1012.9 |
| 20260906055857 | 21 | 297 | 6.4 | 8.0 | 0.00 | 0.00 | 0.00 | 28 | 1012.9 |
| 20260906055358 | 20 | 253 | 3.2 | 3.2 | 0.00 | 0.00 | 0.00 | 27 | 1012.9 |
| 20260906054857 | 20 | 257 | 4.8 | 4.8 | 0.00 | 0.00 | 0.00 | 28 | 1012.9 |
| 20260906054357 | 20 | 262 | 1.6 | 1.6 | 0.00 | 0.00 | 0.00 | 27 | 1012.9 |
| 20260906053857 | 20 | 273 | 1.6 | 3.2 | 0.00 | 0.00 | 0.00 | 28 | 1012.9 |
| 20260906053357 | 20 | 289 | 1.6 | 1.6 | 0.00 | 0.00 | 0.00 | 30 | 1012.9 |
| 20260906052858 | 19 | 299 | 3.2 | 3.2 | 0.00 | 0.00 | 0.00 | 30 | 1012.9 |
| 20260906052357 | 19 | 272 | 3.2 | 3.2 | 0.00 | 0.00 | 0.00 | 30 | 1012.9 |
| 20260906051857 | 18 | 320 | 1.6 | 1.6 | 0.00 | 0.00 | 0.00 | 33 | 1012.9 |
| 20260906051357 | 18 | 314 | 1.6 | 1.6 | 0.00 | 0.00 | 0.00 | 32 | 1012.9 |
| 20260906050857 | 19 | 316 | 1.6 | 1.6 | 0.00 | 0.00 | 0.00 | 31 | 1012.9 |
| 20260906050358 | 20 | 356 | 1.6 | 1.6 | 0.00 | 0.00 | 0.00 | 30 | 1012.9 |
| 20260906045857 | 18 | 107 | 1.6 | 1.6 | 0.00 | 0.00 | 0.00 | 30 | 1012.9 |
| 20260906045357 | 18 | 125 | 6.4 | 4.8 | 0.00 | 0.00 | 0.00 | 32 | 1012.5 |
| 20260906044858 | 17 | 220 | 1.6 | 1.6 | 0.00 | 0.00 | 0.00 | 33 | 1012.5 |
| 20260906044357 | 17 | 255 | 1.6 | 1.6 | 0.00 | 0.00 | 0.00 | 35 | 1012.9 |
| 20260906043857 | 17 | 239 | 3.2 | 4.8 | 0.00 | 0.00 | 0.00 | 35 | 1012.9 |
| 20260906043358 | 17 | 236 | 0.0 | 0.0 | 0.00 | 0.00 | 0.00 | 37 | 1012.9 |
| 20260906042857 | 16 | 233 | 4.8 | 4.8 | 0.00 | 0.00 | 0.00 | 38 | 1012.9 |
| 20260906042358 | 16 | 263 | 9.7 | 11.3 | 0.00 | 0.00 | 0.00 | 37 | 1012.9 |
| 20260906041857 | 16 | 252 | 6.4 | 8.0 | 0.00 | 0.00 | 0.00 | 40 | 1012.9 |
| 20260906041357 | 16 | 223 | 1.6 | 1.6 | 0.00 | 0.00 | 0.00 | 42 | 1012.5 |
| 20260906040857 | 16 | 223 | 1.6 | 1.6 | 0.00 | 0.00 | 0.00 | 43 | 1012.5 |
| 20260906040358 | 15 | 190 | 0.0 | 0.0 | 0.00 | 0.00 | 0.00 | 45 | 1012.5 |
| 20260906035857 | 15 | 194 | 1.6 | 1.6 | 0.00 | 0.00 | 0.00 | 47 | 1012.5 |
| 20260906035357 | 15 | 205 | 0.0 | 0.0 | 0.00 | 0.00 | 0.00 | 49 | 1012.2 |
| 20260906034857 | 14 | 182 | 1.6 | 1.6 | 0.00 | 0.00 | 0.00 | 51 | 1012.5 |
| 20260906034357 | 13 | 173 | 0.0 | 0.0 | 0.00 | 0.00 | 0.00 | 55 | 1012.5 |
| 20260906033857 | 12 | 170 | 0.0 | 0.0 | 0.00 | 0.00 | 0.00 | 59 | 1012.9 |
| 20260906033357 | 12 | 170 | 1.6 | 0.0 | 0.00 | 0.00 | 0.00 | 60 | 1012.5 |
| 20260906032857 | 12 | 148 | 0.0 | 0.0 | 0.00 | 0.00 | 0.00 | 61 | 1012.5 |
| 20260906032357 | 12 | 148 | 0.0 | 0.0 | 0.00 | 0.00 | 0.00 | 61 | 1012.5 |
| 20260906031858 | 12 | 148 | 1.6 | 0.0 | 0.00 | 0.00 | 0.00 | 61 | 1012.5 |
| 20260906031358 | 12 | 147 | 1.6 | 1.6 | 0.00 | 0.00 | 0.00 | 61 | 1012.5 |
| 20260906030857 | 12 | 151 | 1.6 | 1.6 | 0.00 | 0.00 | 0.00 | 62 | 1012.5 |
| 20260906030357 | 12 | 167 | 1.6 | 1.6 | 0.00 | 0.00 | 0.00 | 63 | 1012.5 |
| 20260906025857 | 11 | 166 | 1.6 | 1.6 | 0.00 | 0.00 | 0.00 | 65 | 1012.5 |
| 20260906025357 | 12 | 126 | 1.6 | 1.6 | 0.00 | 0.00 | 0.00 | 68 | 1012.2 |
| 20260906024857 | 12 | 126 | 1.6 | 1.6 | 0.00 | 0.00 | 0.00 | 69 | 1012.5 |
| 20260906024357 | 12 | 126 | 1.6 | 1.6 | 0.00 | 0.00 | 0.00 | 70 | 1012.5 |
| 20260906023858 | 12 | 194 | 1.6 | 1.6 | 0.00 | 0.00 | 0.00 | 70 | 1012.5 |
| 20260906023358 | 12 | 241 | 1.6 | 1.6 | 0.00 | 0.00 | 0.00 | 69 | 1012.5 |
| 20260906022857 | 13 | 237 | 3.2 | 3.2 | 0.00 | 0.00 | 0.00 | 68 | 1012.5 |
| 20260906022358 | 13 | 253 | 6.4 | 8.0 | 0.00 | 0.00 | 0.00 | 68 | 1012.5 |
| 20260906021859 | 13 | 254 | 4.8 | 4.8 | 0.00 | 0.00 | 0.00 | 68 | 1012.5 |
| 20260906021357 | 12 | 229 | 4.8 | 3.2 | 0.00 | 0.00 | 0.00 | 72 | 1012.2 |
| 20260906020857 | 12 | 254 | 0.0 | 0.0 | 0.00 | 0.00 | 0.00 | 73 | 1012.2 |
| 20260906020357 | 12 | 254 | 0.0 | 0.0 | 0.00 | 0.00 | 0.00 | 73 | 1012.5 |
| 20260906015857 | 13 | 225 | 1.6 | 1.6 | 0.00 | 0.00 | 0.00 | 73 | 1012.5 |
| 20260906015357 | 13 | 239 | 1.6 | 1.6 | 0.00 | 0.00 | 0.00 | 73 | 1012.5 |
| 20260906014857 | 12 | 232 | 1.6 | 1.6 | 0.00 | 0.00 | 0.00 | 72 | 1012.2 |
| 20260906014357 | 13 | 227 | 1.6 | 1.6 | 0.00 | 0.00 | 0.00 | 71 | 1012.2 |
| 20260906013858 | 13 | 236 | 0.0 | 0.0 | 0.00 | 0.00 | 0.00 | 72 | 1012.2 |
| 20260906013358 | 13 | 231 | 4.8 | 4.8 | 0.00 | 0.00 | 0.00 | 74 | 1012.5 |
| 20260906012857 | 13 | 238 | 4.8 | 4.8 | 0.00 | 0.00 | 0.00 | 74 | 1012.5 |
| 20260906012357 | 12 | 132 | 0.0 | 0.0 | 0.00 | 0.00 | 0.00 | 73 | 1012.2 |
| 20260906011858 | 12 | 132 | 0.0 | 0.0 | 0.00 | 0.00 | 0.00 | 73 | 1012.2 |
| 20260906011357 | 12 | 129 | 1.6 | 0.0 | 0.00 | 0.00 | 0.00 | 72 | 1012.5 |
| 20260906010857 | 12 | 128 | 0.0 | 0.0 | 0.00 | 0.00 | 0.00 | 72 | 1012.5 |
| 20260906010357 | 12 | 128 | 1.6 | 1.6 | 0.00 | 0.00 | 0.00 | 65 | 1012.5 |
| 20260906005858 | 12 | 136 | 1.6 | 1.6 | 0.00 | 0.00 | 0.00 | 65 | 1012.2 |
| 20260906005358 | 12 | 136 | 1.6 | 0.0 | 0.00 | 0.00 | 0.00 | 66 | 1012.2 |
| 20260906004858 | 12 | 144 | 3.2 | 3.2 | 0.00 | 0.00 | 0.00 | 65 | 1012.2 |
| 20260906004357 | 12 | 210 | 1.6 | 0.0 | 0.00 | 0.00 | 0.00 | 66 | 1012.5 |
| 20260906003857 | 12 | 210 | 1.6 | 0.0 | 0.00 | 0.00 | 0.00 | 67 | 1012.5 |
| 20260906003358 | 12 | 210 | 0.0 | 0.0 | 0.00 | 0.00 | 0.00 | 67 | 1012.5 |
| 20260906002857 | 13 | 210 | 1.6 | 0.0 | 0.00 | 0.00 | 0.00 | 65 | 1012.5 |
| 20260906002358 | 13 | 236 | 0.0 | 0.0 | 0.00 | 0.00 | 0.00 | 64 | 1012.5 |
| 20260906001857 | 13 | 229 | 1.6 | 1.6 | 0.00 | 0.00 | 0.00 | 66 | 1012.5 |
| 20260906001357 | 13 | 218 | 1.6 | 1.6 | 0.00 | 0.00 | 0.00 | 65 | 1012.9 |
| 20260906000858 | 13 | 206 | 0.0 | 0.0 | 0.00 | 0.00 | 0.00 | 63 | 1012.5 |
| 20260906000358 | 13 | 208 | 1.6 | 1.6 | 0.00 | 0.00 | 0.00 | 60 | 1012.2 |
| 20260905235857 | 13 | 230 | 0.0 | 0.0 | 0.00 | 0.00 | 0.00 | 59 | 1012.5 |
| 20260905235359 | 13 | 230 | 1.6 | 1.6 | 0.00 | 0.00 | 0.00 | 59 | 1012.5 |
| 20260905234857 | 13 | 224 | 1.6 | 0.0 | 0.00 | 0.00 | 0.00 | 60 | 1012.5 |
| 20260905234357 | 13 | 231 | 0.0 | 0.0 | 0.00 | 0.00 | 0.00 | 59 | 1012.5 |
| 20260905233858 | 13 | 232 | 0.0 | 0.0 | 0.00 | 0.00 | 0.00 | 59 | 1012.5 |
| 20260905233357 | 13 | 231 | 0.0 | 0.0 | 0.00 | 0.00 | 0.00 | 58 | 1012.9 |
| 20260905232858 | 13 | 231 | 0.0 | 0.0 | 0.00 | 0.00 | 0.00 | 58 | 1012.5 |
| 20260905232357 | 13 | 232 | 1.6 | 0.0 | 0.00 | 0.00 | 0.00 | 58 | 1012.5 |
| 20260905231857 | 13 | 233 | 0.0 | 0.0 | 0.00 | 0.00 | 0.00 | 59 | 1012.5 |
| 20260905231357 | 13 | 233 | 0.0 | 0.0 | 0.00 | 0.00 | 0.00 | 58 | 1012.5 |
| 20260905230858 | 13 | 233 | 0.0 | 0.0 | 0.00 | 0.00 | 0.00 | 58 | 1012.5 |
| 20260905230357 | 13 | 232 | 1.6 | 1.6 | 0.00 | 0.00 | 0.00 | 58 | 1012.5 |
| 20260905225857 | 13 | 228 | 1.6 | 1.6 | 0.00 | 0.00 | 0.00 | 60 | 1012.5 |
| 20260905225357 | 13 | 228 | 0.0 | 0.0 | 0.00 | 0.00 | 0.00 | 60 | 1012.9 |
| 20260905224857 | 13 | 230 | 1.6 | 3.2 | 0.00 | 0.00 | 0.00 | 63 | 1012.9 |
| 20260905224357 | 12 | 167 | 1.6 | 1.6 | 0.00 | 0.00 | 0.00 | 67 | 1012.9 |
| 20260905223858 | 12 | 126 | 3.2 | 3.2 | 0.00 | 0.00 | 0.00 | 68 | 1012.5 |
| 20260905223357 | 13 | 127 | 1.6 | 1.6 | 0.00 | 0.00 | 0.00 | 67 | 1012.9 |
| 20260905222858 | 13 | 127 | 1.6 | 1.6 | 0.00 | 0.00 | 0.00 | 68 | 1012.9 |
| 20260905222357 | 12 | 127 | 0.0 | 0.0 | 0.00 | 0.00 | 0.00 | 69 | 1012.9 |
| 20260905221858 | 12 | 127 | 1.6 | 1.6 | 0.00 | 0.00 | 0.00 | 71 | 1012.9 |
| 20260905221357 | 12 | 130 | 0.0 | 0.0 | 0.00 | 0.00 | 0.00 | 73 | 1012.9 |
| 20260905220857 | 13 | 163 | 1.6 | 1.6 | 0.00 | 0.00 | 0.00 | 72 | 1013.2 |
| 20260905220357 | 13 | 193 | 0.0 | 0.0 | 0.00 | 0.00 | 0.00 | 72 | 1012.9 |
| 20260905215857 | 13 | 143 | 0.0 | 0.0 | 0.00 | 0.00 | 0.00 | 77 | 1012.9 |
| 20260905215358 | 13 | 143 | 0.0 | 0.0 | 0.00 | 0.00 | 0.00 | 77 | 1013.2 |
| 20260905214859 | 13 | 145 | 0.0 | 0.0 | 0.00 | 0.00 | 0.00 | 80 | 1012.9 |
| 20260905214357 | 13 | 118 | 0.0 | 0.0 | 0.00 | 0.00 | 0.00 | 82 | 1013.2 |
| 20260905213857 | 13 | 118 | 1.6 | 1.6 | 0.00 | 0.00 | 0.00 | 80 | 1012.9 |
| 20260905213357 | 13 | 118 | 1.6 | 1.6 | 0.00 | 0.00 | 0.00 | 82 | 1012.9 |
| 20260905212857 | 13 | 120 | 0.0 | 0.0 | 0.00 | 0.00 | 0.00 | 82 | 1013.2 |
| 20260905212358 | 13 | 120 | 0.0 | 0.0 | 0.00 | 0.00 | 0.00 | 82 | 1012.9 |
| 20260905211856 | 13 | 120 | 0.0 | 0.0 | 0.00 | 0.00 | 0.00 | 83 | 1012.9 |
| 20260905211357 | 13 | 120 | 3.2 | 3.2 | 0.00 | 0.00 | 0.00 | 82 | 1013.2 |
| 20260905210858 | 13 | 120 | 0.0 | 0.0 | 0.00 | 0.00 | 0.00 | 81 | 1013.2 |
| 20260905210358 | 13 | 121 | 1.6 | 1.6 | 0.00 | 0.00 | 0.00 | 83 | 1013.2 |
| 20260905205857 | 13 | 115 | 3.2 | 3.2 | 0.00 | 0.00 | 0.00 | 75 | 1013.2 |
| 20260905205357 | 13 | 123 | 1.6 | 1.6 | 0.00 | 0.00 | 0.00 | 79 | 1013.2 |
| 20260905204857 | 13 | 123 | 0.0 | 0.0 | 0.00 | 0.00 | 0.00 | 80 | 1013.5 |
| 20260905204357 | 13 | 123 | 0.0 | 0.0 | 0.00 | 0.00 | 0.00 | 80 | 1013.5 |
| 20260905203857 | 13 | 123 | 0.0 | 0.0 | 0.00 | 0.00 | 0.00 | 80 | 1013.5 |
| 20260905203358 | 13 | 123 | 0.0 | 0.0 | 0.00 | 0.00 | 0.00 | 77 | 1013.5 |
| 20260905202857 | 14 | 125 | 1.6 | 0.0 | 0.00 | 0.00 | 0.00 | 75 | 1013.5 |
| 20260905202357 | 14 | 125 | 0.0 | 0.0 | 0.00 | 0.00 | 0.00 | 78 | 1013.5 |
| 20260905201858 | 15 | 125 | 4.8 | 4.8 | 0.00 | 0.00 | 0.00 | 76 | 1013.5 |
| 20260905201357 | 15 | 124 | 1.6 | 1.6 | 0.00 | 0.00 | 0.00 | 77 | 1013.5 |
| 20260905200857 | 15 | 126 | 1.6 | 1.6 | 0.00 | 0.00 | 0.00 | 72 | 1013.5 |
| 20260905200357 | 15 | 126 | 1.6 | 0.0 | 0.00 | 0.00 | 0.00 | 77 | 1013.5 |
| 20260905195426 | 15 | 126 | 1.6 | 0.0 | 0.00 | 0.00 | 0.00 | 72 | 1013.5 |
| 20260905194857 | 15 | 148 | 0.0 | 0.0 | 0.00 | 0.00 | 0.00 | 73 | 1013.5 |
| 20260905194357 | 16 | 213 | 0.0 | 0.0 | 0.00 | 0.00 | 0.00 | 73 | 1013.5 |
| 20260905193858 | 15 | 176 | 1.6 | 1.6 | 0.00 | 0.00 | 0.00 | 74 | 1013.5 |
| 20260905193357 | 15 | 120 | 0.0 | 0.0 | 0.00 | 0.00 | 0.00 | 73 | 1013.5 |
| 20260905192858 | 15 | 121 | 1.6 | 1.6 | 0.00 | 0.00 | 0.00 | 70 | 1013.9 |
| 20260905192357 | 15 | 119 | 3.2 | 3.2 | 0.00 | 0.00 | 0.00 | 66 | 1013.9 |
| 20260905191858 | 15 | 123 | 0.0 | 0.0 | 0.00 | 0.00 | 0.00 | 71 | 1013.5 |
| 20260905191357 | 15 | 123 | 3.2 | 1.6 | 0.00 | 0.00 | 0.00 | 68 | 1013.5 |
| 20260905190857 | 16 | 129 | 3.2 | 3.2 | 0.00 | 0.00 | 0.00 | 64 | 1013.5 |
| 20260905190359 | 16 | 130 | 1.6 | 1.6 | 0.00 | 0.00 | 0.00 | 66 | 1013.5 |
| 20260905185857 | 16 | 129 | 3.2 | 3.2 | 0.00 | 0.00 | 0.00 | 63 | 1013.5 |
| 20260905185357 | 16 | 239 | 1.6 | 1.6 | 0.00 | 0.00 | 0.00 | 66 | 1013.5 |
| 20260905184857 | 16 | 239 | 0.0 | 0.0 | 0.00 | 0.00 | 0.00 | 64 | 1013.5 |
| 20260905184358 | 16 | 203 | 3.2 | 3.2 | 0.00 | 0.00 | 0.00 | 67 | 1013.9 |
| 20260905183859 | 16 | 126 | 1.6 | 1.6 | 0.00 | 0.00 | 0.00 | 62 | 1013.5 |
| 20260905183357 | 17 | 127 | 0.0 | 0.0 | 0.00 | 0.00 | 0.00 | 63 | 1013.5 |
| 20260905182858 | 16 | 106 | 1.6 | 1.6 | 0.00 | 0.00 | 0.00 | 63 | 1013.5 |
| 20260905182357 | 17 | 86 | 0.0 | 0.0 | 0.00 | 0.00 | 0.00 | 62 | 1013.5 |
| 20260905181858 | 17 | 85 | 0.0 | 0.0 | 0.00 | 0.00 | 0.00 | 63 | 1013.9 |
| 20260905181357 | 17 | 85 | 0.0 | 0.0 | 0.00 | 0.00 | 0.00 | 62 | 1013.5 |
| 20260905180857 | 17 | 85 | 0.0 | 0.0 | 0.00 | 0.00 | 0.00 | 62 | 1013.5 |
| 20260905180357 | 17 | 85 | 0.0 | 0.0 | 0.00 | 0.00 | 0.00 | 61 | 1013.9 |
| 20260905175857 | 17 | 85 | 0.0 | 0.0 | 0.00 | 0.00 | 0.00 | 62 | 1013.5 |
| 20260905175357 | 17 | 355 | 1.6 | 1.6 | 0.00 | 0.00 | 0.00 | 61 | 1013.5 |
| 20260905174901 | 17 | 354 | 0.0 | 0.0 | 0.00 | 0.00 | 0.00 | 60 | 1013.5 |
| 20260905174357 | 18 | 354 | 0.0 | 0.0 | 0.00 | 0.00 | 0.00 | 60 | 1013.5 |
| 20260905173857 | 18 | 342 | 1.6 | 1.6 | 0.00 | 0.00 | 0.00 | 61 | 1013.5 |
| 20260905173357 | 18 | 346 | 4.8 | 4.8 | 0.00 | 0.00 | 0.00 | 59 | 1013.5 |
| 20260905172857 | 18 | 131 | 0.0 | 0.0 | 0.00 | 0.00 | 0.00 | 60 | 1013.5 |
| 20260905172357 | 18 | 130 | 0.0 | 0.0 | 0.00 | 0.00 | 0.00 | 59 | 1013.5 |
| 20260905171857 | 19 | 130 | 0.0 | 0.0 | 0.00 | 0.00 | 0.00 | 58 | 1013.5 |
| 20260905171357 | 19 | 161 | 1.6 | 1.6 | 0.00 | 0.00 | 0.00 | 58 | 1013.5 |
| 20260905170905 | 19 | 148 | 1.6 | 1.6 | 0.00 | 0.00 | 0.00 | 56 | 1013.2 |
| 20260905170357 | 20 | 148 | 1.6 | 1.6 | 0.00 | 0.00 | 0.00 | 56 | 1013.2 |
| 20260905165421 | 20 | 154 | 4.8 | 4.8 | 0.00 | 0.00 | 0.00 | 54 | 1013.2 |
| 20260905164900 | 20 | 163 | 3.2 | 3.2 | 0.00 | 0.00 | 0.00 | 53 | 1013.2 |
| 20260905164357 | 20 | 162 | 1.6 | 1.6 | 0.00 | 0.00 | 0.00 | 51 | 1013.2 |
| 20260905163857 | 20 | 143 | 1.6 | 1.6 | 0.00 | 0.00 | 0.00 | 50 | 1013.2 |
| 20260905163358 | 20 | 148 | 3.2 | 3.2 | 0.00 | 0.00 | 0.00 | 50 | 1012.9 |
| 20260905162900 | 21 | 150 | 4.8 | 3.2 | 0.00 | 0.00 | 0.00 | 49 | 1013.2 |
| 20260905162357 | 21 | 118 | 3.2 | 3.2 | 0.00 | 0.00 | 0.00 | 48 | 1012.9 |
| 20260905161857 | 21 | 135 | 3.2 | 3.2 | 0.00 | 0.00 | 0.00 | 47 | 1012.9 |
| 20260905161358 | 21 | 170 | 0.0 | 0.0 | 0.00 | 0.00 | 0.00 | 47 | 1013.2 |
| 20260905160857 | 21 | 168 | 1.6 | 3.2 | 0.00 | 0.00 | 0.00 | 46 | 1012.9 |
| 20260905160357 | 21 | 146 | 1.6 | 1.6 | 0.00 | 0.00 | 0.00 | 45 | 1012.9 |
| 20260905155858 | 22 | 161 | 3.2 | 3.2 | 0.00 | 0.00 | 0.00 | 43 | 1012.9 |
| 20260905155357 | 22 | 154 | 3.2 | 4.8 | 0.00 | 0.00 | 0.00 | 40 | 1012.9 |
| 20260905154857 | 22 | 144 | 1.6 | 3.2 | 0.00 | 0.00 | 0.00 | 38 | 1012.9 |
| 20260905154357 | 22 | 181 | 0.0 | 0.0 | 0.00 | 0.00 | 0.00 | 38 | 1013.2 |
| 20260905153857 | 23 | 172 | 3.2 | 3.2 | 0.00 | 0.00 | 0.00 | 36 | 1012.9 |
| 20260905153357 | 23 | 233 | 4.8 | 4.8 | 0.00 | 0.00 | 0.00 | 35 | 1012.9 |
| 20260905152857 | 23 | 150 | 1.6 | 1.6 | 0.00 | 0.00 | 0.00 | 34 | 1012.9 |
| 20260905152358 | 23 | 178 | 4.8 | 4.8 | 0.00 | 0.00 | 0.00 | 34 | 1012.9 |
| 20260905151857 | 24 | 155 | 4.8 | 4.8 | 0.00 | 0.00 | 0.00 | 33 | 1012.9 |
| 20260905151359 | 24 | 168 | 4.8 | 4.8 | 0.00 | 0.00 | 0.00 | 31 | 1012.9 |
| 20260905150858 | 25 | 160 | 4.8 | 4.8 | 0.00 | 0.00 | 0.00 | 30 | 1012.9 |
| 20260905150357 | 25 | 188 | 3.2 | 3.2 | 0.00 | 0.00 | 0.00 | 27 | 1012.9 |
| 20260905145858 | 25 | 119 | 4.8 | 4.8 | 0.00 | 0.00 | 0.00 | 22 | 1012.9 |
| 20260905145357 | 25 | 143 | 4.8 | 3.2 | 0.00 | 0.00 | 0.00 | 19 | 1012.9 |
| 20260905144858 | 25 | 143 | 9.7 | 11.3 | 0.00 | 0.00 | 0.00 | 19 | 1012.9 |
| 20260905144359 | 25 | 145 | 4.8 | 4.8 | 0.00 | 0.00 | 0.00 | 18 | 1012.9 |
| 20260905143857 | 25 | 150 | 6.4 | 8.0 | 0.00 | 0.00 | 0.00 | 18 | 1012.9 |
| 20260905143357 | 26 | 136 | 8.0 | 9.7 | 0.00 | 0.00 | 0.00 | 17 | 1012.9 |
| 20260905142858 | 26 | 177 | 4.8 | 4.8 | 0.00 | 0.00 | 0.00 | 17 | 1012.9 |
| 20260905142357 | 25 | 163 | 3.2 | 4.8 | 0.00 | 0.00 | 0.00 | 17 | 1012.9 |
| 20260905141858 | 25 | 169 | 9.7 | 12.9 | 0.00 | 0.00 | 0.00 | 16 | 1012.9 |
| 20260905141400 | 27 | 152 | 8.0 | 11.3 | 0.00 | 0.00 | 0.00 | 14 | 1012.9 |
| 20260905140857 | 26 | 194 | 1.6 | 1.6 | 0.00 | 0.00 | 0.00 | 16 | 1013.2 |
| 20260905140357 | 26 | 180 | 4.8 | 8.0 | 0.00 | 0.00 | 0.00 | 14 | 1012.9 |
| 20260905135857 | 26 | 150 | 4.8 | 8.0 | 0.00 | 0.00 | 0.00 | 12 | 1012.9 |
| 20260905135357 | 26 | 123 | 8.0 | 9.7 | 0.00 | 0.00 | 0.00 | 12 | 1012.9 |
| 20260905134857 | 27 | 149 | 8.0 | 9.7 | 0.00 | 0.00 | 0.00 | 13 | 1012.9 |
| 20260905134357 | 26 | 291 | 1.6 | 1.6 | 0.00 | 0.00 | 0.00 | 15 | 1012.9 |
| 20260905133858 | 26 | 152 | 11.3 | 12.9 | 0.00 | 0.00 | 0.00 | 15 | 1012.9 |
| 20260905133358 | 26 | 132 | 8.0 | 9.7 | 0.00 | 0.00 | 0.00 | 14 | 1012.9 |
| 20260905132857 | 26 | 174 | 6.4 | 8.0 | 0.00 | 0.00 | 0.00 | 14 | 1012.9 |
| 20260905132357 | 26 | 162 | 3.2 | 3.2 | 0.00 | 0.00 | 0.00 | 16 | 1012.9 |
| 20260905131858 | 26 | 135 | 9.7 | 11.3 | 0.00 | 0.00 | 0.00 | 14 | 1013.2 |
| 20260905131357 | 26 | 153 | 8.0 | 8.0 | 0.00 | 0.00 | 0.00 | 14 | 1012.9 |
| 20260905130857 | 26 | 221 | 3.2 | 3.2 | 0.00 | 0.00 | 0.00 | 15 | 1013.2 |
| 20260905130357 | 26 | 117 | 6.4 | 4.8 | 0.00 | 0.00 | 0.00 | 15 | 1012.9 |
| 20260905125857 | 26 | 149 | 6.4 | 8.0 | 0.00 | 0.00 | 0.00 | 15 | 1013.2 |
| 20260905125357 | 25 | 170 | 8.0 | 8.0 | 0.00 | 0.00 | 0.00 | 17 | 1013.2 |
| 20260905124857 | 26 | 133 | 8.0 | 9.7 | 0.00 | 0.00 | 0.00 | 16 | 1013.2 |
| 20260905124357 | 25 | 141 | 8.0 | 11.3 | 0.00 | 0.00 | 0.00 | 17 | 1012.9 |
| 20260905123857 | 26 | 117 | 12.9 | 14.5 | 0.00 | 0.00 | 0.00 | 17 | 1012.9 |
| 20260905123357 | 26 | 157 | 9.7 | 12.9 | 0.00 | 0.00 | 0.00 | 16 | 1013.2 |